createdAt,value
2023-01-17T00:02:18.378Z,97549.31
2023-01-17T00:05:05.601Z,97553.63
2023-01-17T00:07:53.131Z,97558.28
2023-01-17T00:10:26.294Z,97553.53
2023-01-17T00:12:55.964Z,97559.81
2023-01-17T00:15:24.302Z,97552.78
2023-01-17T00:17:52.435Z,97568.53
2023-01-17T00:20:42.594Z,97580.72
2023-01-17T00:23:33.180Z,97583.81
2023-01-17T00:26:05.504Z,97577.56
2023-01-17T00:28:37.704Z,97585.00
2023-01-17T00:31:05.331Z,97588.59
2023-01-17T00:33:32.686Z,97582.25
2023-01-17T00:36:00.698Z,97585.81
2023-01-17T00:38:30.181Z,97586.59
2023-01-17T00:41:05.756Z,97597.22
2023-01-17T00:43:50.948Z,97596.84
2023-01-17T00:46:36.667Z,97600.38
2023-01-17T00:49:22.777Z,97605.47
2023-01-17T00:52:08.009Z,97614.97
2023-01-17T00:54:53.582Z,97615.75
2023-01-17T00:57:38.670Z,97622.44
2023-01-17T01:00:25.009Z,97617.28
2023-01-17T01:03:10.908Z,97627.16
2023-01-17T01:05:56.785Z,97635.47
2023-01-17T01:08:44.987Z,97648.06
2023-01-17T01:11:33.255Z,97652.81
2023-01-17T01:14:19.108Z,97657.56
2023-01-17T01:17:04.486Z,97663.09
2023-01-17T01:19:49.822Z,97664.69
2023-01-17T01:22:35.035Z,97668.66
2023-01-17T01:25:20.432Z,97675.31
2023-01-17T01:28:05.510Z,97669.44
2023-01-17T01:30:50.910Z,97682.03
2023-01-17T01:33:20.736Z,97687.53
2023-01-17T01:35:55.129Z,97688.72
2023-01-17T01:38:23.566Z,97686.75
2023-01-17T01:40:53.125Z,97704.84
2023-01-17T01:43:40.600Z,97704.06
2023-01-17T01:46:11.347Z,97704.84
2023-01-17T01:49:17.269Z,97708.44
2023-01-17T01:52:05.757Z,97705.28
2023-01-17T01:54:44.403Z,97710.81
2023-01-17T01:57:13.981Z,97712.34
2023-01-17T01:59:45.986Z,97722.63
2023-01-17T02:02:13.662Z,97719.84
2023-01-17T02:04:40.933Z,97719.84
2023-01-17T02:07:12.440Z,97723.38
2023-01-17T02:09:39.045Z,97724.19
2023-01-17T02:12:08.163Z,97728.50
2023-01-17T02:14:34.592Z,97737.53
2023-01-17T02:17:12.109Z,97737.56
2023-01-17T02:20:12.286Z,97728.13
2023-01-17T02:22:50.843Z,97730.09
2023-01-17T02:25:35.167Z,97747.78
2023-01-17T02:28:24.894Z,97743.06
2023-01-17T02:31:02.560Z,97755.69
2023-01-17T02:33:47.709Z,97750.13
2023-01-17T02:36:25.850Z,97745.81
2023-01-17T02:39:03.235Z,97757.25
2023-01-17T02:41:35.502Z,97754.13
2023-01-17T02:44:03.525Z,97758.44
2023-01-17T02:46:30.866Z,97751.00
2023-01-17T02:48:58.230Z,97749.44
2023-01-17T02:51:38.812Z,97764.00
2023-01-17T02:54:23.377Z,97767.16
2023-01-17T02:57:13.555Z,97773.03
2023-01-17T02:59:53.934Z,97779.72
2023-01-17T03:02:44.952Z,97783.28
2023-01-17T03:05:26.848Z,97790.75
2023-01-17T03:07:54.957Z,97795.47
2023-01-17T03:10:22.315Z,97797.03
2023-01-17T03:12:48.779Z,97798.59
2023-01-17T03:15:17.424Z,97797.81
2023-01-17T03:17:50.503Z,97808.84
2023-01-17T03:20:17.408Z,97804.53
2023-01-17T03:22:44.245Z,97810.44
2023-01-17T03:25:10.787Z,97806.09
2023-01-17T03:27:37.508Z,97811.22
2023-01-17T03:30:04.825Z,97809.63
2023-01-17T03:32:31.678Z,97815.13
2023-01-17T03:34:58.535Z,97822.22
2023-01-17T03:37:25.132Z,97821.44
2023-01-17T03:39:51.630Z,97810.03
2023-01-17T03:42:18.488Z,97819.88
2023-01-17T03:44:45.168Z,97821.44
2023-01-17T03:47:12.442Z,97818.28
2023-01-17T03:49:39.920Z,97823.00
2023-01-17T03:52:07.627Z,97829.69
2023-01-17T03:54:34.391Z,97828.09
2023-01-17T03:57:02.050Z,97835.59
2023-01-17T03:59:28.655Z,97832.03
2023-01-17T04:01:55.417Z,97837.94
2023-01-17T04:04:22.713Z,97839.50
2023-01-17T04:06:49.389Z,97836.34
2023-01-17T04:09:16.183Z,97845.03
2023-01-17T04:11:42.639Z,97830.84
2023-01-17T04:14:09.193Z,97836.72
2023-01-17T04:16:37.246Z,97836.34
2023-01-17T04:19:03.715Z,97837.47
2023-01-17T04:21:30.276Z,97841.41
2023-01-17T04:23:57.628Z,97833.09
2023-01-17T04:26:24.971Z,97835.47
2023-01-17T04:28:52.130Z,97828.78
2023-01-17T04:31:18.677Z,97834.28
2023-01-17T04:33:45.985Z,97830.31
2023-01-17T04:36:12.559Z,97835.81
2023-01-17T04:38:39.259Z,97836.97
2023-01-17T04:41:06.044Z,97839.31
2023-01-17T04:43:32.923Z,97834.19
2023-01-17T04:45:59.725Z,97837.25
2023-01-17T04:48:27.676Z,97840.63
2023-01-17T04:51:01.644Z,97847.72
2023-01-17T04:53:28.368Z,97856.31
2023-01-17T04:55:56.342Z,97854.81
2023-01-17T04:58:23.400Z,97857.97
2023-01-17T05:00:51.607Z,97863.38
2023-01-17T05:03:20.211Z,97857.41
2023-01-17T05:05:47.290Z,97861.81
2023-01-17T05:08:14.627Z,97860.53
2023-01-17T05:10:41.100Z,97866.28
2023-01-17T05:13:09.198Z,97859.19
2023-01-17T05:15:36.523Z,97866.72
2023-01-17T05:18:08.344Z,97863.59
2023-01-17T05:20:35.300Z,97863.84
2023-01-17T05:23:02.448Z,97864.59
2023-01-17T05:25:30.729Z,97856.66
2023-01-17T05:28:01.701Z,97856.81
2023-01-17T05:30:31.194Z,97854.72
2023-01-17T05:32:58.794Z,97853.56
2023-01-17T05:35:28.634Z,97850.38
2023-01-17T05:37:56.354Z,97855.81
2023-01-17T05:40:24.536Z,97855.72
2023-01-17T05:42:53.477Z,97855.19
2023-01-17T05:45:22.015Z,97851.63
2023-01-17T05:47:51.327Z,97851.91
2023-01-17T05:50:38.769Z,97856.34
2023-01-17T05:53:08.168Z,97862.13
2023-01-17T05:55:36.219Z,97860.78
2023-01-17T05:58:05.014Z,97872.06
2023-01-17T06:00:32.373Z,97874.03
2023-01-17T06:03:00.123Z,97874.34
2023-01-17T06:05:29.431Z,97879.00
2023-01-17T06:07:56.959Z,97873.94
2023-01-17T06:10:24.248Z,97881.31
2023-01-17T06:13:00.693Z,97876.25
2023-01-17T06:15:27.982Z,97880.91
2023-01-17T06:17:56.316Z,97877.69
2023-01-17T06:20:22.966Z,97876.22
2023-01-17T06:22:50.403Z,97885.63
2023-01-17T06:25:16.858Z,97887.31
2023-01-17T06:27:43.684Z,97889.78
2023-01-17T06:30:10.749Z,97903.22
2023-01-17T06:32:38.415Z,97892.19
2023-01-17T06:35:05.208Z,97892.88
2023-01-17T06:37:33.186Z,97894.47
2023-01-17T06:39:59.919Z,97896.84
2023-01-17T06:42:26.323Z,97888.97
2023-01-17T06:44:52.945Z,97893.13
2023-01-17T06:47:21.266Z,97889.75
2023-01-17T06:49:47.904Z,97891.41
2023-01-17T06:52:14.424Z,97891.91
2023-01-17T06:54:41.555Z,97891.41
2023-01-17T06:57:08.117Z,97889.84
2023-01-17T06:59:34.813Z,97898.22
2023-01-17T07:02:01.540Z,97899.31
2023-01-17T07:04:30.738Z,97893.53
2023-01-17T07:06:57.450Z,97900.25
2023-01-17T07:09:24.362Z,97895.91
2023-01-17T07:11:52.370Z,97904.50
2023-01-17T07:14:18.880Z,97902.53
2023-01-17T07:16:46.094Z,97903.25
2023-01-17T07:19:13.392Z,97906.38
2023-01-17T07:21:40.779Z,97916.91
2023-01-17T07:24:09.069Z,97908.06
2023-01-17T07:26:37.653Z,97911.28
2023-01-17T07:29:05.069Z,97910.56
2023-01-17T07:31:36.705Z,97917.41
2023-01-17T07:34:04.144Z,97907.44
2023-01-17T07:36:30.756Z,97904.00
2023-01-17T07:38:57.498Z,97906.09
2023-01-17T07:41:24.112Z,97906.84
2023-01-17T07:43:50.806Z,97904.34
2023-01-17T07:46:18.179Z,97903.66
2023-01-17T07:48:44.984Z,97896.78
2023-01-17T07:51:12.275Z,97892.34
2023-01-17T07:53:38.926Z,97895.44
2023-01-17T07:56:07.433Z,97904.44
2023-01-17T07:58:35.199Z,97903.53
2023-01-17T08:01:04.292Z,97893.28
2023-01-17T08:03:34.966Z,97903.66
2023-01-17T08:06:02.781Z,97898.94
2023-01-17T08:08:29.460Z,97899.72
2023-01-17T08:10:55.939Z,97894.66
2023-01-17T08:13:22.898Z,97899.88
2023-01-17T08:15:50.541Z,97897.94
2023-01-17T08:18:18.211Z,97883.78
2023-01-17T08:20:45.252Z,97882.59
2023-01-17T08:23:12.333Z,97889.88
2023-01-17T08:25:40.246Z,97878.78
2023-01-17T08:28:06.965Z,97879.88
2023-01-17T08:30:34.888Z,97890.69
2023-01-17T08:33:01.824Z,97894.25
2023-01-17T08:35:28.937Z,97889.34
2023-01-17T08:37:57.516Z,97897.69
2023-01-17T08:40:24.734Z,97892.16
2023-01-17T08:42:56.843Z,97903.97
2023-01-17T08:45:24.070Z,97904.50
2023-01-17T08:47:51.329Z,97896.53
2023-01-17T08:50:20.975Z,97910.56
2023-01-17T08:52:49.494Z,97905.91
2023-01-17T08:55:16.763Z,97907.53
2023-01-17T08:57:43.770Z,97909.16
2023-01-17T09:00:11.246Z,97907.19
2023-01-17T09:02:38.308Z,97908.22
2023-01-17T09:05:05.593Z,97906.66
2023-01-17T09:07:32.953Z,97916.53
2023-01-17T09:09:59.533Z,97913.03
2023-01-17T09:12:26.547Z,97909.81
2023-01-17T09:14:53.908Z,97904.75
2023-01-17T09:17:20.819Z,97905.66
2023-01-17T09:19:48.905Z,97910.94
2023-01-17T09:22:15.767Z,97907.66
2023-01-17T09:24:42.550Z,97903.97
2023-01-17T09:27:09.373Z,97909.09
2023-01-17T09:29:35.988Z,97909.22
2023-01-17T09:32:02.617Z,97903.94
2023-01-17T09:34:30.352Z,97897.44
2023-01-17T09:36:57.428Z,97907.06
2023-01-17T09:39:24.198Z,97906.53
2023-01-17T09:42:00.126Z,97907.25
2023-01-17T09:44:41.184Z,97909.31
2023-01-17T09:47:26.962Z,97914.66
2023-01-17T09:49:59.452Z,97906.06
2023-01-17T09:52:27.942Z,97906.19
2023-01-17T09:54:54.801Z,97911.25
2023-01-17T09:58:00.232Z,97913.25
2023-01-17T10:00:38.406Z,97920.38
2023-01-17T10:03:44.289Z,97921.56
2023-01-17T10:06:32.367Z,97920.16
2023-01-17T10:09:20.310Z,97924.13
2023-01-17T10:11:52.877Z,97921.13
2023-01-17T10:14:41.357Z,97921.06
2023-01-17T10:17:23.957Z,97924.97
2023-01-17T10:20:12.350Z,97915.72
2023-01-17T10:22:51.488Z,97911.94
2023-01-17T10:25:48.437Z,97909.53
2023-01-17T10:28:30.158Z,97914.66
2023-01-17T10:31:22.680Z,97916.25
2023-01-17T10:34:18.815Z,97906.06
2023-01-17T10:36:50.115Z,97904.88
2023-01-17T10:39:28.332Z,97907.22
2023-01-17T10:42:06.761Z,97908.00
2023-01-17T10:44:41.056Z,97912.72
2023-01-17T10:47:10.935Z,97917.44
2023-01-17T10:49:41.834Z,97913.50
2023-01-17T10:52:30.419Z,97906.81
2023-01-17T10:55:24.003Z,97906.41
2023-01-17T10:57:51.207Z,97898.03
2023-01-17T11:00:30.685Z,97899.31
2023-01-17T11:03:00.144Z,97897.38
2023-01-17T11:05:29.519Z,97898.13
2023-01-17T11:08:09.838Z,97893.44
2023-01-17T11:10:41.983Z,97892.16
2023-01-17T11:13:30.627Z,97884.25
2023-01-17T11:16:02.102Z,97890.56
2023-01-17T11:18:35.392Z,97893.81
2023-01-17T11:21:17.016Z,97890.59
2023-01-17T11:23:49.217Z,97887.00
2023-01-17T11:26:36.187Z,97882.66
2023-01-17T11:29:27.518Z,97890.16
2023-01-17T11:31:56.128Z,97877.31
2023-01-17T11:34:29.366Z,97881.53
2023-01-17T11:37:09.365Z,97878.03
2023-01-17T11:39:36.106Z,97875.16
2023-01-17T11:42:06.377Z,97872.47
2023-01-17T11:44:35.691Z,97870.47
2023-01-17T11:47:11.998Z,97871.50
2023-01-17T11:49:40.531Z,97866.66
2023-01-17T11:52:09.407Z,97867.41
2023-01-17T11:54:39.495Z,97867.00
2023-01-17T11:57:23.930Z,97862.75
2023-01-17T12:00:19.501Z,97856.16
2023-01-17T12:03:06.070Z,97852.69
2023-01-17T12:05:48.420Z,97850.22
2023-01-17T12:08:42.471Z,97846.22
2023-01-17T12:12:13.811Z,97836.63
2023-01-17T12:14:52.887Z,97840.41
2023-01-17T12:17:38.073Z,97838.22
2023-01-17T12:20:16.674Z,97830.66
2023-01-17T12:23:13.859Z,97822.28
2023-01-17T12:26:23.875Z,97822.22
2023-01-17T12:29:11.840Z,97808.09
2023-01-17T12:31:52.638Z,97816.47
2023-01-17T12:34:28.112Z,97802.41
2023-01-17T12:37:19.136Z,97810.59
2023-01-17T12:39:56.337Z,97803.88
2023-01-17T12:42:30.369Z,97807.44
2023-01-17T12:45:05.725Z,97798.56
2023-01-17T12:47:37.665Z,97797.00
2023-01-17T12:50:18.845Z,97792.28
2023-01-17T12:52:54.209Z,97794.41
2023-01-17T12:55:34.579Z,97790.97
2023-01-17T12:58:05.940Z,97784.06
2023-01-17T13:00:40.111Z,97786.50
2023-01-17T13:03:20.878Z,97786.53
2023-01-17T13:05:48.507Z,97800.88
2023-01-17T13:08:38.743Z,97791.63
2023-01-17T13:11:14.552Z,97801.16
2023-01-17T13:13:41.893Z,97799.00
2023-01-17T13:16:14.776Z,97807.56
2023-01-17T13:18:49.211Z,97795.28
2023-01-17T13:21:32.384Z,97791.88
2023-01-17T13:24:08.522Z,97795.88
2023-01-17T13:26:50.338Z,97793.53
2023-01-17T13:29:19.512Z,97804.19
2023-01-17T13:31:50.686Z,97797.59
2023-01-17T13:34:50.767Z,97805.09
2023-01-17T13:37:41.407Z,97802.81
2023-01-17T13:40:24.430Z,97805.56
2023-01-17T13:42:56.067Z,97814.19
2023-01-17T13:45:27.294Z,97820.56
2023-01-17T13:48:09.673Z,97815.06
2023-01-17T13:50:36.100Z,97822.97
2023-01-17T13:53:31.283Z,97818.25
2023-01-17T13:56:19.396Z,97814.31
2023-01-17T13:58:50.162Z,97813.16
2023-01-17T14:01:22.721Z,97819.06
2023-01-17T14:03:49.953Z,97814.72
2023-01-17T14:06:35.503Z,97809.22
2023-01-17T14:09:20.785Z,97806.06
2023-01-17T14:12:08.504Z,97812.72
2023-01-17T14:14:41.571Z,97806.34
2023-01-17T14:17:23.056Z,97815.81
2023-01-17T14:19:55.800Z,97808.00
2023-01-17T14:22:28.422Z,97813.91
2023-01-17T14:24:57.093Z,97804.84
2023-01-17T14:27:25.792Z,97809.97
2023-01-17T14:29:58.925Z,97798.56
2023-01-17T14:32:35.378Z,97801.31
2023-01-17T14:35:03.020Z,97804.84
2023-01-17T14:37:35.846Z,97797.81
2023-01-17T14:40:02.292Z,97801.31
2023-01-17T14:42:31.226Z,97797.41
2023-01-17T14:45:05.557Z,97800.59
2023-01-17T14:47:37.915Z,97800.19
2023-01-17T14:50:21.907Z,97800.97
2023-01-17T14:53:07.274Z,97800.19
2023-01-17T14:55:34.250Z,97802.56
2023-01-17T14:58:00.694Z,97800.59
2023-01-17T15:00:30.501Z,97797.06
2023-01-17T15:02:59.386Z,97803.34
2023-01-17T15:05:28.525Z,97793.88
2023-01-17T15:07:57.847Z,97800.19
2023-01-17T15:10:31.184Z,97797.03
2023-01-17T15:13:06.760Z,97797.03
2023-01-17T15:15:37.281Z,97788.38
2023-01-17T15:18:26.932Z,97797.44
2023-01-17T15:21:01.442Z,97787.97
2023-01-17T15:23:36.287Z,97797.72
2023-01-17T15:26:04.590Z,97792.22
2023-01-17T15:28:33.460Z,97789.09
2023-01-17T15:31:01.861Z,97793.00
2023-01-17T15:33:32.102Z,97802.41
2023-01-17T15:36:04.793Z,97803.16
2023-01-17T15:38:38.837Z,97799.22
2023-01-17T15:41:17.019Z,97807.06
2023-01-17T15:43:45.157Z,97810.50
2023-01-17T15:46:23.464Z,97808.91
2023-01-17T15:48:51.534Z,97816.28
2023-01-17T15:51:37.285Z,97823.28
2023-01-17T15:54:31.150Z,97830.28
2023-01-17T15:57:19.304Z,97827.09
2023-01-17T15:59:51.722Z,97820.47
2023-01-17T16:02:47.228Z,97821.19
2023-01-17T16:05:23.471Z,97821.88
2023-01-17T16:07:52.378Z,97819.81
2023-01-17T16:10:20.352Z,97818.59
2023-01-17T16:12:48.799Z,97825.22
2023-01-17T16:15:18.347Z,97822.91
2023-01-17T16:17:51.586Z,97829.84
2023-01-17T16:20:26.066Z,97820.66
2023-01-17T16:22:53.429Z,97825.53
2023-01-17T16:25:22.832Z,97832.44
2023-01-17T16:27:51.489Z,97820.66
2023-01-17T16:30:21.180Z,97826.50
2023-01-17T16:32:49.200Z,97831.22
2023-01-17T16:35:22.553Z,97835.56
2023-01-17T16:37:51.873Z,97830.50
2023-01-17T16:40:25.243Z,97834.34
2023-01-17T16:42:52.768Z,97837.75
2023-01-17T16:45:19.474Z,97841.78
2023-01-17T16:47:47.837Z,97850.09
2023-01-17T16:50:17.282Z,97847.91
2023-01-17T16:52:44.300Z,97839.69
2023-01-17T16:55:13.976Z,97853.75
2023-01-17T16:57:41.673Z,97856.66
2023-01-17T17:00:12.047Z,97862.38
2023-01-17T17:02:39.326Z,97859.97
2023-01-17T17:05:10.086Z,97864.84
2023-01-17T17:07:42.825Z,97866.31
2023-01-17T17:10:15.503Z,97864.06
2023-01-17T17:12:42.987Z,97871.31
2023-01-17T17:15:11.911Z,97877.38
2023-01-17T17:17:40.941Z,97876.19
2023-01-17T17:20:13.996Z,97892.06
2023-01-17T17:22:42.966Z,97896.06
2023-01-17T17:25:11.987Z,97894.38
2023-01-17T17:27:39.197Z,97894.06
2023-01-17T17:30:06.556Z,97892.91
2023-01-17T17:32:33.731Z,97898.47
2023-01-17T17:35:00.532Z,97901.13
2023-01-17T17:37:30.348Z,97899.00
2023-01-17T17:39:57.372Z,97908.41
2023-01-17T17:42:24.025Z,97898.59
2023-01-17T17:44:50.776Z,97903.28
2023-01-17T17:47:17.867Z,97903.66
2023-01-17T17:49:44.495Z,97903.94
2023-01-17T17:52:12.830Z,97912.47
2023-01-17T17:54:39.554Z,97909.81
2023-01-17T17:57:06.525Z,97910.16
2023-01-17T17:59:33.714Z,97916.09
2023-01-17T18:02:00.305Z,97917.31
2023-01-17T18:04:27.172Z,97919.75
2023-01-17T18:06:57.883Z,97922.22
2023-01-17T18:09:24.602Z,97919.16
2023-01-17T18:11:51.185Z,97926.38
2023-01-17T18:14:20.844Z,97934.13
2023-01-17T18:16:48.078Z,97930.25
2023-01-17T18:19:25.796Z,97939.50
2023-01-17T18:21:53.435Z,97939.31
2023-01-17T18:24:22.667Z,97937.47
2023-01-17T18:26:52.257Z,97940.81
2023-01-17T18:29:21.104Z,97935.03
2023-01-17T18:31:52.614Z,97947.88
2023-01-17T18:34:23.689Z,97945.56
2023-01-17T18:36:51.741Z,97948.75
2023-01-17T18:39:22.847Z,97948.75
2023-01-17T18:41:50.091Z,97942.84
2023-01-17T18:44:18.398Z,97951.94
2023-01-17T18:46:47.855Z,97962.44
2023-01-17T18:49:19.247Z,97954.09
2023-01-17T18:51:50.208Z,97961.31
2023-01-17T18:54:18.147Z,97956.94
2023-01-17T18:56:45.308Z,97956.50
2023-01-17T18:59:14.019Z,97965.13
2023-01-17T19:01:44.532Z,97967.69
2023-01-17T19:04:13.576Z,97962.72
2023-01-17T19:06:43.944Z,97958.41
2023-01-17T19:09:12.771Z,97963.63
2023-01-17T19:11:40.087Z,97965.44
2023-01-17T19:14:07.315Z,97970.44
2023-01-17T19:16:35.616Z,97971.09
2023-01-17T19:19:05.312Z,97981.66
2023-01-17T19:21:32.531Z,97986.63
2023-01-17T19:23:59.487Z,97984.34
2023-01-17T19:26:27.314Z,97988.22
2023-01-17T19:28:56.100Z,97994.41
2023-01-17T19:31:28.203Z,98003.25
2023-01-17T19:33:59.312Z,98004.09
2023-01-17T19:36:37.292Z,98007.06
2023-01-17T19:39:06.686Z,98009.22
2023-01-17T19:41:35.991Z,98017.56
2023-01-17T19:44:07.117Z,98023.31
2023-01-17T19:46:35.033Z,98023.97
2023-01-17T19:49:02.346Z,98022.59
2023-01-17T19:51:29.127Z,98015.94
2023-01-17T19:53:58.849Z,98026.47
2023-01-17T19:56:26.395Z,98030.97
2023-01-17T19:58:54.117Z,98025.31
2023-01-17T20:01:24.541Z,98028.31
2023-01-17T20:03:57.614Z,98027.25
2023-01-17T20:06:27.579Z,98030.84
2023-01-17T20:08:54.454Z,98033.63
2023-01-17T20:11:23.415Z,98040.75
2023-01-17T20:13:55.990Z,98042.41
2023-01-17T20:16:23.933Z,98049.19
2023-01-17T20:18:51.280Z,98046.81
2023-01-17T20:21:24.321Z,98047.13
2023-01-17T20:23:52.045Z,98051.53
2023-01-17T20:26:22.098Z,98061.66
2023-01-17T20:28:51.432Z,98061.38
2023-01-17T20:31:21.006Z,98062.06
2023-01-17T20:33:50.423Z,98066.47
2023-01-17T20:36:18.670Z,98067.78
2023-01-17T20:38:45.867Z,98073.31
2023-01-17T20:41:46.028Z,98067.78
2023-01-17T20:44:15.266Z,98067.44
2023-01-17T20:46:42.950Z,98062.53
2023-01-17T20:49:16.483Z,98077.25
2023-01-17T20:51:44.774Z,98073.88
2023-01-17T20:54:17.679Z,98076.69
2023-01-17T20:56:47.247Z,98072.69
2023-01-17T20:59:17.623Z,98075.00
2023-01-17T21:01:44.391Z,98088.75
2023-01-17T21:04:11.262Z,98087.47
2023-01-17T21:06:39.764Z,98086.44
2023-01-17T21:09:10.891Z,98087.22
2023-01-17T21:11:38.374Z,98089.88
2023-01-17T21:14:05.859Z,98085.81
2023-01-17T21:16:34.082Z,98078.47
2023-01-17T21:19:01.470Z,98083.53
2023-01-17T21:21:29.180Z,98090.47
2023-01-17T21:23:58.208Z,98094.34
2023-01-17T21:26:26.866Z,98095.88
2023-01-17T21:28:54.542Z,98093.41
2023-01-17T21:31:27.351Z,98096.50
2023-01-17T21:34:00.230Z,98104.63
2023-01-17T21:36:29.432Z,98103.66
2023-01-17T21:38:58.602Z,98105.41
2023-01-17T21:41:31.313Z,98104.31
2023-01-17T21:44:02.810Z,98110.75
2023-01-17T21:46:30.111Z,98113.06
2023-01-17T21:48:57.527Z,98112.63
2023-01-17T21:51:24.907Z,98112.00
2023-01-17T21:53:51.563Z,98110.22
2023-01-17T21:56:36.689Z,98110.94
2023-01-17T21:59:03.600Z,98117.88
2023-01-17T22:01:32.902Z,98113.75
2023-01-17T22:04:03.729Z,98119.09
2023-01-17T22:06:32.676Z,98115.91
2023-01-17T22:08:59.210Z,98118.22
2023-01-17T22:11:27.149Z,98124.53
2023-01-17T22:13:54.238Z,98122.78
2023-01-17T22:16:25.550Z,98111.44
2023-01-17T22:18:52.110Z,98112.91
2023-01-17T22:21:20.243Z,98113.09
2023-01-17T22:23:54.715Z,98124.63
2023-01-17T22:26:23.648Z,98122.97
2023-01-17T22:28:50.381Z,98115.13
2023-01-17T22:31:20.863Z,98127.91
2023-01-17T22:33:56.310Z,98114.63
2023-01-17T22:36:23.717Z,98122.38
2023-01-17T22:38:50.544Z,98135.03
2023-01-17T22:41:20.991Z,98122.16
2023-01-17T22:43:50.334Z,98119.38
2023-01-17T22:46:19.862Z,98119.44
2023-01-17T22:48:47.242Z,98126.41
2023-01-17T22:51:16.154Z,98120.09
2023-01-17T22:53:48.182Z,98126.59
2023-01-17T22:56:17.686Z,98121.22
2023-01-17T22:58:45.013Z,98131.00
2023-01-17T23:01:14.645Z,98128.16
2023-01-17T23:03:41.963Z,98126.22
2023-01-17T23:06:16.085Z,98122.44
2023-01-17T23:08:45.058Z,98116.47
2023-01-17T23:11:39.086Z,98123.75
2023-01-17T23:14:09.394Z,98132.16
2023-01-17T23:16:56.404Z,98120.09
2023-01-17T23:19:23.590Z,98116.63
2023-01-17T23:22:14.303Z,98115.84
2023-01-17T23:24:43.407Z,98115.22
2023-01-17T23:27:30.483Z,98113.75
2023-01-17T23:29:57.403Z,98107.31
2023-01-17T23:32:23.927Z,98115.69
2023-01-17T23:34:50.694Z,98111.16
2023-01-17T23:37:17.349Z,98124.41
2023-01-17T23:39:44.351Z,98120.69
2023-01-17T23:42:30.017Z,98125.97
2023-01-17T23:44:56.484Z,98122.63
2023-01-17T23:47:23.053Z,98119.56
2023-01-17T23:49:50.266Z,98121.28
2023-01-17T23:52:16.685Z,98125.63
2023-01-17T23:54:43.329Z,98117.09
2023-01-17T23:57:09.989Z,98121.38
2023-01-17T23:59:36.654Z,98125.69
